sensor_id;sensor_type;location;lat;lon;timestamp;P1;durP1;ratioP1;P2;durP2;ratioP2
7831;SDS011;3961;42.058;25.586;2024-03-06T00:02:17;18.80;;;13.10;;
7831;SDS011;3961;42.058;25.586;2024-03-06T00:04:43;23.87;;;13.87;;
7831;SDS011;3961;42.058;25.586;2024-03-06T00:07:08;21.80;;;14.60;;
7831;SDS011;3961;42.058;25.586;2024-03-06T00:09:34;28.50;;;20.77;;
7831;SDS011;3961;42.058;25.586;2024-03-06T00:11:59;23.57;;;15.17;;
7831;SDS011;3961;42.058;25.586;2024-03-06T00:14:25;21.83;;;13.23;;
7831;SDS011;3961;42.058;25.586;2024-03-06T00:16:50;25.50;;;13.90;;
7831;SDS011;3961;42.058;25.586;2024-03-06T00:19:16;20.20;;;13.33;;
7831;SDS011;3961;42.058;25.586;2024-03-06T00:21:43;21.53;;;13.97;;
7831;SDS011;3961;42.058;25.586;2024-03-06T00:24:08;22.80;;;13.90;;
7831;SDS011;3961;42.058;25.586;2024-03-06T00:26:33;17.77;;;13.00;;
7831;SDS011;3961;42.058;25.586;2024-03-06T00:28:59;19.70;;;13.33;;
7831;SDS011;3961;42.058;25.586;2024-03-06T00:31:24;20.87;;;13.60;;
7831;SDS011;3961;42.058;25.586;2024-03-06T00:33:50;21.53;;;13.17;;
7831;SDS011;3961;42.058;25.586;2024-03-06T00:36:15;21.33;;;13.73;;
7831;SDS011;3961;42.058;25.586;2024-03-06T00:38:40;25.03;;;14.40;;
7831;SDS011;3961;42.058;25.586;2024-03-06T00:41:06;23.77;;;13.23;;
7831;SDS011;3961;42.058;25.586;2024-03-06T00:43:31;24.83;;;13.63;;
7831;SDS011;3961;42.058;25.586;2024-03-06T00:45:57;20.73;;;13.17;;
7831;SDS011;3961;42.058;25.586;2024-03-06T00:48:22;20.20;;;12.93;;
7831;SDS011;3961;42.058;25.586;2024-03-06T00:50:47;18.47;;;12.57;;
7831;SDS011;3961;42.058;25.586;2024-03-06T00:53:13;21.37;;;14.13;;
7831;SDS011;3961;42.058;25.586;2024-03-06T00:55:38;19.23;;;12.37;;
7831;SDS011;3961;42.058;25.586;2024-03-06T00:58:05;18.60;;;13.13;;
7831;SDS011;3961;42.058;25.586;2024-03-06T01:00:31;25.50;;;15.90;;
7831;SDS011;3961;42.058;25.586;2024-03-06T01:02:57;20.30;;;13.43;;
7831;SDS011;3961;42.058;25.586;2024-03-06T01:05:22;23.80;;;13.77;;
7831;SDS011;3961;42.058;25.586;2024-03-06T01:07:48;19.40;;;13.37;;
7831;SDS011;3961;42.058;25.586;2024-03-06T01:10:13;20.50;;;12.83;;
7831;SDS011;3961;42.058;25.586;2024-03-06T01:12:39;21.43;;;13.30;;
7831;SDS011;3961;42.058;25.586;2024-03-06T01:15:04;21.93;;;13.97;;
7831;SDS011;3961;42.058;25.586;2024-03-06T01:17:30;19.77;;;13.30;;
7831;SDS011;3961;42.058;25.586;2024-03-06T01:19:55;19.43;;;13.97;;
7831;SDS011;3961;42.058;25.586;2024-03-06T01:22:21;21.40;;;13.73;;
7831;SDS011;3961;42.058;25.586;2024-03-06T01:24:46;21.70;;;13.40;;
7831;SDS011;3961;42.058;25.586;2024-03-06T01:27:15;18.93;;;12.70;;
7831;SDS011;3961;42.058;25.586;2024-03-06T01:29:41;17.87;;;12.93;;
7831;SDS011;3961;42.058;25.586;2024-03-06T01:32:07;18.50;;;12.90;;
7831;SDS011;3961;42.058;25.586;2024-03-06T01:34:32;20.87;;;12.60;;
7831;SDS011;3961;42.058;25.586;2024-03-06T01:36:58;23.23;;;12.60;;
7831;SDS011;3961;42.058;25.586;2024-03-06T01:39:23;21.60;;;12.17;;
7831;SDS011;3961;42.058;25.586;2024-03-06T01:41:49;20.00;;;12.80;;
7831;SDS011;3961;42.058;25.586;2024-03-06T01:44:16;20.43;;;12.00;;
7831;SDS011;3961;42.058;25.586;2024-03-06T01:46:42;18.07;;;12.57;;
7831;SDS011;3961;42.058;25.586;2024-03-06T01:49:09;20.37;;;12.93;;
7831;SDS011;3961;42.058;25.586;2024-03-06T01:51:36;17.63;;;12.43;;
7831;SDS011;3961;42.058;25.586;2024-03-06T01:54:02;19.03;;;12.63;;
7831;SDS011;3961;42.058;25.586;2024-03-06T01:56:31;23.70;;;13.67;;
7831;SDS011;3961;42.058;25.586;2024-03-06T01:58:59;24.10;;;13.40;;
7831;SDS011;3961;42.058;25.586;2024-03-06T02:01:24;21.60;;;13.37;;
7831;SDS011;3961;42.058;25.586;2024-03-06T02:03:50;18.03;;;13.03;;
7831;SDS011;3961;42.058;25.586;2024-03-06T02:06:17;23.67;;;12.90;;
7831;SDS011;3961;42.058;25.586;2024-03-06T02:08:45;23.07;;;13.17;;
7831;SDS011;3961;42.058;25.586;2024-03-06T02:11:11;18.60;;;12.50;;
7831;SDS011;3961;42.058;25.586;2024-03-06T02:13:38;17.67;;;12.63;;
7831;SDS011;3961;42.058;25.586;2024-03-06T02:16:04;18.73;;;13.37;;
7831;SDS011;3961;42.058;25.586;2024-03-06T02:18:30;21.70;;;13.27;;
7831;SDS011;3961;42.058;25.586;2024-03-06T02:20:56;22.47;;;13.00;;
7831;SDS011;3961;42.058;25.586;2024-03-06T02:23:22;18.03;;;12.90;;
7831;SDS011;3961;42.058;25.586;2024-03-06T02:25:47;23.00;;;11.97;;
7831;SDS011;3961;42.058;25.586;2024-03-06T02:28:13;20.30;;;13.70;;
7831;SDS011;3961;42.058;25.586;2024-03-06T02:30:39;21.07;;;13.43;;
7831;SDS011;3961;42.058;25.586;2024-03-06T02:33:05;18.87;;;13.17;;
7831;SDS011;3961;42.058;25.586;2024-03-06T02:35:31;20.73;;;13.17;;
7831;SDS011;3961;42.058;25.586;2024-03-06T02:38:00;21.17;;;13.77;;
7831;SDS011;3961;42.058;25.586;2024-03-06T02:40:25;18.93;;;12.80;;
7831;SDS011;3961;42.058;25.586;2024-03-06T02:42:51;23.37;;;13.70;;
7831;SDS011;3961;42.058;25.586;2024-03-06T02:45:16;18.70;;;12.90;;
7831;SDS011;3961;42.058;25.586;2024-03-06T02:47:42;17.93;;;12.13;;
7831;SDS011;3961;42.058;25.586;2024-03-06T02:50:07;20.53;;;13.37;;
7831;SDS011;3961;42.058;25.586;2024-03-06T02:52:33;23.67;;;13.70;;
7831;SDS011;3961;42.058;25.586;2024-03-06T02:54:58;26.37;;;15.07;;
7831;SDS011;3961;42.058;25.586;2024-03-06T02:57:28;23.03;;;14.63;;
7831;SDS011;3961;42.058;25.586;2024-03-06T02:59:54;24.23;;;15.73;;
7831;SDS011;3961;42.058;25.586;2024-03-06T03:02:20;23.87;;;14.60;;
7831;SDS011;3961;42.058;25.586;2024-03-06T03:04:46;19.40;;;13.43;;
7831;SDS011;3961;42.058;25.586;2024-03-06T03:07:11;22.20;;;14.43;;
7831;SDS011;3961;42.058;25.586;2024-03-06T03:09:37;20.67;;;13.67;;
7831;SDS011;3961;42.058;25.586;2024-03-06T03:12:03;22.87;;;14.37;;
7831;SDS011;3961;42.058;25.586;2024-03-06T03:14:28;22.97;;;13.97;;
7831;SDS011;3961;42.058;25.586;2024-03-06T03:16:54;22.37;;;14.37;;
7831;SDS011;3961;42.058;25.586;2024-03-06T03:19:19;20.57;;;14.13;;
7831;SDS011;3961;42.058;25.586;2024-03-06T03:21:45;22.53;;;14.33;;
7831;SDS011;3961;42.058;25.586;2024-03-06T03:24:10;27.80;;;15.03;;
7831;SDS011;3961;42.058;25.586;2024-03-06T03:26:36;27.03;;;14.23;;
7831;SDS011;3961;42.058;25.586;2024-03-06T03:29:02;28.67;;;16.70;;
7831;SDS011;3961;42.058;25.586;2024-03-06T03:31:27;22.77;;;15.10;;
7831;SDS011;3961;42.058;25.586;2024-03-06T03:33:53;21.30;;;13.73;;
7831;SDS011;3961;42.058;25.586;2024-03-06T03:36:19;21.87;;;13.90;;
7831;SDS011;3961;42.058;25.586;2024-03-06T03:38:44;21.80;;;14.93;;
7831;SDS011;3961;42.058;25.586;2024-03-06T03:41:12;28.20;;;15.57;;
7831;SDS011;3961;42.058;25.586;2024-03-06T03:43:38;24.73;;;14.93;;
7831;SDS011;3961;42.058;25.586;2024-03-06T03:46:04;18.63;;;12.67;;
7831;SDS011;3961;42.058;25.586;2024-03-06T03:48:31;21.40;;;12.30;;
7831;SDS011;3961;42.058;25.586;2024-03-06T03:50:57;19.80;;;13.20;;
7831;SDS011;3961;42.058;25.586;2024-03-06T03:53:22;20.67;;;13.43;;
7831;SDS011;3961;42.058;25.586;2024-03-06T03:55:48;23.20;;;15.17;;
7831;SDS011;3961;42.058;25.586;2024-03-06T03:58:13;20.53;;;14.70;;
7831;SDS011;3961;42.058;25.586;2024-03-06T04:00:39;21.17;;;14.43;;
7831;SDS011;3961;42.058;25.586;2024-03-06T04:03:04;28.23;;;14.17;;
7831;SDS011;3961;42.058;25.586;2024-03-06T04:05:30;22.10;;;15.03;;
7831;SDS011;3961;42.058;25.586;2024-03-06T04:07:56;24.07;;;14.30;;
7831;SDS011;3961;42.058;25.586;2024-03-06T04:10:22;25.03;;;15.37;;
7831;SDS011;3961;42.058;25.586;2024-03-06T04:12:47;25.50;;;15.30;;
7831;SDS011;3961;42.058;25.586;2024-03-06T04:15:12;24.33;;;15.27;;
7831;SDS011;3961;42.058;25.586;2024-03-06T04:17:38;26.63;;;15.70;;
7831;SDS011;3961;42.058;25.586;2024-03-06T04:20:06;26.70;;;16.07;;
7831;SDS011;3961;42.058;25.586;2024-03-06T04:22:35;24.37;;;16.20;;
7831;SDS011;3961;42.058;25.586;2024-03-06T04:25:01;23.30;;;15.57;;
7831;SDS011;3961;42.058;25.586;2024-03-06T04:27:29;24.60;;;16.03;;
7831;SDS011;3961;42.058;25.586;2024-03-06T04:29:54;23.90;;;16.27;;
7831;SDS011;3961;42.058;25.586;2024-03-06T04:32:19;28.03;;;16.73;;
7831;SDS011;3961;42.058;25.586;2024-03-06T04:34:45;25.43;;;16.60;;
7831;SDS011;3961;42.058;25.586;2024-03-06T04:37:11;23.70;;;14.90;;
7831;SDS011;3961;42.058;25.586;2024-03-06T04:39:36;25.23;;;15.77;;
7831;SDS011;3961;42.058;25.586;2024-03-06T04:42:02;26.20;;;16.03;;
7831;SDS011;3961;42.058;25.586;2024-03-06T04:44:28;27.30;;;16.67;;
7831;SDS011;3961;42.058;25.586;2024-03-06T04:46:53;24.20;;;16.47;;
7831;SDS011;3961;42.058;25.586;2024-03-06T04:49:18;25.23;;;16.60;;
7831;SDS011;3961;42.058;25.586;2024-03-06T04:51:44;24.30;;;16.03;;
7831;SDS011;3961;42.058;25.586;2024-03-06T04:54:09;25.67;;;17.17;;
7831;SDS011;3961;42.058;25.586;2024-03-06T04:56:35;27.50;;;16.67;;
7831;SDS011;3961;42.058;25.586;2024-03-06T04:59:00;26.03;;;17.23;;
7831;SDS011;3961;42.058;25.586;2024-03-06T05:01:28;33.27;;;17.63;;
7831;SDS011;3961;42.058;25.586;2024-03-06T05:03:54;26.33;;;17.57;;
7831;SDS011;3961;42.058;25.586;2024-03-06T05:06:20;24.30;;;15.87;;
7831;SDS011;3961;42.058;25.586;2024-03-06T05:08:47;28.73;;;17.40;;
7831;SDS011;3961;42.058;25.586;2024-03-06T05:11:12;27.73;;;17.87;;
7831;SDS011;3961;42.058;25.586;2024-03-06T05:13:38;29.27;;;17.23;;
7831;SDS011;3961;42.058;25.586;2024-03-06T05:16:03;25.03;;;17.63;;
7831;SDS011;3961;42.058;25.586;2024-03-06T05:18:29;27.17;;;16.50;;
7831;SDS011;3961;42.058;25.586;2024-03-06T05:20:54;25.30;;;16.83;;
7831;SDS011;3961;42.058;25.586;2024-03-06T05:23:20;27.27;;;17.10;;
7831;SDS011;3961;42.058;25.586;2024-03-06T05:25:46;27.30;;;17.03;;
7831;SDS011;3961;42.058;25.586;2024-03-06T05:28:11;25.77;;;17.47;;
7831;SDS011;3961;42.058;25.586;2024-03-06T05:30:37;27.93;;;16.83;;
7831;SDS011;3961;42.058;25.586;2024-03-06T05:33:02;32.87;;;18.40;;
7831;SDS011;3961;42.058;25.586;2024-03-06T05:35:27;25.17;;;16.80;;
7831;SDS011;3961;42.058;25.586;2024-03-06T05:37:53;27.93;;;16.70;;
7831;SDS011;3961;42.058;25.586;2024-03-06T05:40:18;24.47;;;16.10;;
7831;SDS011;3961;42.058;25.586;2024-03-06T05:42:44;25.83;;;16.40;;
7831;SDS011;3961;42.058;25.586;2024-03-06T05:45:09;22.90;;;16.77;;
7831;SDS011;3961;42.058;25.586;2024-03-06T05:47:37;25.97;;;16.70;;
7831;SDS011;3961;42.058;25.586;2024-03-06T05:50:03;24.30;;;16.87;;
7831;SDS011;3961;42.058;25.586;2024-03-06T05:52:32;26.40;;;18.43;;
7831;SDS011;3961;42.058;25.586;2024-03-06T05:54:57;24.33;;;17.37;;
7831;SDS011;3961;42.058;25.586;2024-03-06T05:57:23;27.97;;;18.37;;
7831;SDS011;3961;42.058;25.586;2024-03-06T05:59:48;26.73;;;18.70;;
7831;SDS011;3961;42.058;25.586;2024-03-06T06:02:14;29.20;;;19.07;;
7831;SDS011;3961;42.058;25.586;2024-03-06T06:04:44;26.10;;;18.07;;
7831;SDS011;3961;42.058;25.586;2024-03-06T06:07:10;27.53;;;19.73;;
7831;SDS011;3961;42.058;25.586;2024-03-06T06:09:35;30.13;;;20.53;;
7831;SDS011;3961;42.058;25.586;2024-03-06T06:12:01;32.43;;;21.43;;
7831;SDS011;3961;42.058;25.586;2024-03-06T06:14:26;32.00;;;20.97;;
7831;SDS011;3961;42.058;25.586;2024-03-06T06:16:54;32.97;;;21.90;;
7831;SDS011;3961;42.058;25.586;2024-03-06T06:19:21;31.63;;;21.10;;
7831;SDS011;3961;42.058;25.586;2024-03-06T06:21:47;40.47;;;28.10;;
7831;SDS011;3961;42.058;25.586;2024-03-06T06:24:13;43.77;;;28.40;;
7831;SDS011;3961;42.058;25.586;2024-03-06T06:26:38;38.20;;;24.10;;
7831;SDS011;3961;42.058;25.586;2024-03-06T06:29:04;28.80;;;21.03;;
7831;SDS011;3961;42.058;25.586;2024-03-06T06:31:29;27.73;;;19.17;;
7831;SDS011;3961;42.058;25.586;2024-03-06T06:33:55;33.30;;;20.83;;
7831;SDS011;3961;42.058;25.586;2024-03-06T06:36:20;28.00;;;19.47;;
7831;SDS011;3961;42.058;25.586;2024-03-06T06:38:47;33.67;;;20.57;;
7831;SDS011;3961;42.058;25.586;2024-03-06T06:41:13;34.10;;;19.47;;
7831;SDS011;3961;42.058;25.586;2024-03-06T06:43:39;37.53;;;21.87;;
7831;SDS011;3961;42.058;25.586;2024-03-06T06:46:06;44.37;;;23.80;;
7831;SDS011;3961;42.058;25.586;2024-03-06T06:48:32;58.87;;;26.93;;
7831;SDS011;3961;42.058;25.586;2024-03-06T06:50:59;57.60;;;26.73;;
7831;SDS011;3961;42.058;25.586;2024-03-06T06:53:26;61.20;;;27.30;;
7831;SDS011;3961;42.058;25.586;2024-03-06T06:55:51;56.83;;;25.53;;
7831;SDS011;3961;42.058;25.586;2024-03-06T06:58:17;56.03;;;27.40;;
7831;SDS011;3961;42.058;25.586;2024-03-06T07:00:42;57.37;;;26.60;;
7831;SDS011;3961;42.058;25.586;2024-03-06T07:03:08;51.53;;;24.53;;
7831;SDS011;3961;42.058;25.586;2024-03-06T07:05:33;55.47;;;23.87;;
7831;SDS011;3961;42.058;25.586;2024-03-06T07:07:58;43.20;;;18.83;;
7831;SDS011;3961;42.058;25.586;2024-03-06T07:10:24;44.30;;;22.33;;
7831;SDS011;3961;42.058;25.586;2024-03-06T07:12:49;50.80;;;24.73;;
7831;SDS011;3961;42.058;25.586;2024-03-06T07:15:15;41.83;;;20.30;;
7831;SDS011;3961;42.058;25.586;2024-03-06T07:17:41;45.87;;;22.30;;
7831;SDS011;3961;42.058;25.586;2024-03-06T07:20:06;59.37;;;30.37;;
7831;SDS011;3961;42.058;25.586;2024-03-06T07:22:33;53.07;;;27.40;;
7831;SDS011;3961;42.058;25.586;2024-03-06T07:24:59;49.43;;;24.07;;
7831;SDS011;3961;42.058;25.586;2024-03-06T07:27:26;36.47;;;20.97;;
7831;SDS011;3961;42.058;25.586;2024-03-06T07:29:51;35.57;;;20.67;;
7831;SDS011;3961;42.058;25.586;2024-03-06T07:32:16;46.40;;;25.10;;
7831;SDS011;3961;42.058;25.586;2024-03-06T07:34:42;38.83;;;23.47;;
7831;SDS011;3961;42.058;25.586;2024-03-06T07:37:07;43.40;;;23.50;;
7831;SDS011;3961;42.058;25.586;2024-03-06T07:39:33;36.63;;;19.63;;
7831;SDS011;3961;42.058;25.586;2024-03-06T07:41:59;40.73;;;21.97;;
7831;SDS011;3961;42.058;25.586;2024-03-06T07:44:25;33.17;;;18.67;;
7831;SDS011;3961;42.058;25.586;2024-03-06T07:46:50;38.67;;;20.33;;
7831;SDS011;3961;42.058;25.586;2024-03-06T07:49:16;35.13;;;17.97;;
7831;SDS011;3961;42.058;25.586;2024-03-06T07:51:41;34.87;;;18.27;;
7831;SDS011;3961;42.058;25.586;2024-03-06T07:54:07;35.70;;;19.87;;
7831;SDS011;3961;42.058;25.586;2024-03-06T07:56:32;34.60;;;18.80;;
7831;SDS011;3961;42.058;25.586;2024-03-06T07:58:58;32.33;;;18.77;;
7831;SDS011;3961;42.058;25.586;2024-03-06T08:01:23;27.57;;;16.47;;
7831;SDS011;3961;42.058;25.586;2024-03-06T08:03:49;28.77;;;17.07;;
7831;SDS011;3961;42.058;25.586;2024-03-06T08:06:14;31.90;;;19.03;;
7831;SDS011;3961;42.058;25.586;2024-03-06T08:08:41;35.23;;;19.70;;
7831;SDS011;3961;42.058;25.586;2024-03-06T08:11:09;37.17;;;20.37;;
7831;SDS011;3961;42.058;25.586;2024-03-06T08:13:37;37.03;;;21.57;;
7831;SDS011;3961;42.058;25.586;2024-03-06T08:16:03;33.60;;;19.90;;
7831;SDS011;3961;42.058;25.586;2024-03-06T08:18:30;38.03;;;20.87;;
7831;SDS011;3961;42.058;25.586;2024-03-06T08:20:56;35.97;;;21.07;;
7831;SDS011;3961;42.058;25.586;2024-03-06T08:23:21;36.67;;;20.77;;
7831;SDS011;3961;42.058;25.586;2024-03-06T08:25:47;34.77;;;20.53;;
7831;SDS011;3961;42.058;25.586;2024-03-06T08:28:12;35.40;;;20.37;;
7831;SDS011;3961;42.058;25.586;2024-03-06T08:30:38;33.03;;;20.60;;
7831;SDS011;3961;42.058;25.586;2024-03-06T08:33:03;34.43;;;21.43;;
7831;SDS011;3961;42.058;25.586;2024-03-06T08:35:29;33.73;;;21.37;;
7831;SDS011;3961;42.058;25.586;2024-03-06T08:37:55;33.80;;;20.17;;
7831;SDS011;3961;42.058;25.586;2024-03-06T08:40:20;48.47;;;25.03;;
7831;SDS011;3961;42.058;25.586;2024-03-06T08:42:46;40.33;;;20.63;;
7831;SDS011;3961;42.058;25.586;2024-03-06T08:45:12;34.17;;;20.67;;
7831;SDS011;3961;42.058;25.586;2024-03-06T08:47:39;36.10;;;20.70;;
7831;SDS011;3961;42.058;25.586;2024-03-06T08:50:05;32.93;;;19.40;;
7831;SDS011;3961;42.058;25.586;2024-03-06T08:52:32;33.47;;;19.30;;
7831;SDS011;3961;42.058;25.586;2024-03-06T08:54:59;54.77;;;30.33;;
7831;SDS011;3961;42.058;25.586;2024-03-06T08:57:25;37.03;;;21.13;;
7831;SDS011;3961;42.058;25.586;2024-03-06T08:59:53;42.80;;;20.43;;
7831;SDS011;3961;42.058;25.586;2024-03-06T09:02:19;36.07;;;20.23;;
7831;SDS011;3961;42.058;25.586;2024-03-06T09:04:45;36.67;;;20.13;;
7831;SDS011;3961;42.058;25.586;2024-03-06T09:07:11;41.57;;;20.47;;
7831;SDS011;3961;42.058;25.586;2024-03-06T09:09:38;35.07;;;20.23;;
7831;SDS011;3961;42.058;25.586;2024-03-06T09:12:07;31.67;;;19.27;;
7831;SDS011;3961;42.058;25.586;2024-03-06T09:14:35;34.40;;;20.37;;
7831;SDS011;3961;42.058;25.586;2024-03-06T09:17:02;38.90;;;20.10;;
7831;SDS011;3961;42.058;25.586;2024-03-06T09:19:28;34.80;;;20.17;;
7831;SDS011;3961;42.058;25.586;2024-03-06T09:21:54;29.63;;;19.03;;
7831;SDS011;3961;42.058;25.586;2024-03-06T09:24:20;35.90;;;18.03;;
7831;SDS011;3961;42.058;25.586;2024-03-06T09:26:47;31.63;;;19.43;;
7831;SDS011;3961;42.058;25.586;2024-03-06T09:29:13;29.70;;;18.17;;
7831;SDS011;3961;42.058;25.586;2024-03-06T09:31:39;32.33;;;18.57;;
7831;SDS011;3961;42.058;25.586;2024-03-06T09:34:04;36.60;;;19.17;;
7831;SDS011;3961;42.058;25.586;2024-03-06T09:36:29;39.30;;;21.00;;
7831;SDS011;3961;42.058;25.586;2024-03-06T09:38:55;33.90;;;18.50;;
7831;SDS011;3961;42.058;25.586;2024-03-06T09:41:21;34.53;;;17.87;;
7831;SDS011;3961;42.058;25.586;2024-03-06T09:43:47;30.53;;;17.10;;
7831;SDS011;3961;42.058;25.586;2024-03-06T09:46:12;27.67;;;16.90;;
7831;SDS011;3961;42.058;25.586;2024-03-06T09:48:42;31.00;;;16.77;;
7831;SDS011;3961;42.058;25.586;2024-03-06T09:51:11;32.37;;;16.17;;
7831;SDS011;3961;42.058;25.586;2024-03-06T09:53:37;31.17;;;15.27;;
7831;SDS011;3961;42.058;25.586;2024-03-06T09:56:04;26.57;;;15.63;;
7831;SDS011;3961;42.058;25.586;2024-03-06T09:58:31;20.27;;;12.83;;
7831;SDS011;3961;42.058;25.586;2024-03-06T10:00:57;19.43;;;13.00;;
7831;SDS011;3961;42.058;25.586;2024-03-06T10:03:25;22.30;;;9.80;;
7831;SDS011;3961;42.058;25.586;2024-03-06T10:05:50;12.60;;;7.97;;
7831;SDS011;3961;42.058;25.586;2024-03-06T10:08:16;15.47;;;9.13;;
7831;SDS011;3961;42.058;25.586;2024-03-06T10:10:42;14.73;;;7.93;;
7831;SDS011;3961;42.058;25.586;2024-03-06T10:13:08;18.13;;;9.60;;
7831;SDS011;3961;42.058;25.586;2024-03-06T10:15:34;18.00;;;10.93;;
7831;SDS011;3961;42.058;25.586;2024-03-06T10:20:40;15.90;;;9.93;;
7831;SDS011;3961;42.058;25.586;2024-03-06T10:23:09;17.93;;;9.30;;
7831;SDS011;3961;42.058;25.586;2024-03-06T10:25:35;15.27;;;8.03;;
7831;SDS011;3961;42.058;25.586;2024-03-06T10:28:10;21.30;;;13.23;;
7831;SDS011;3961;42.058;25.586;2024-03-06T10:33:06;16.20;;;9.57;;
7831;SDS011;3961;42.058;25.586;2024-03-06T10:35:33;21.63;;;10.53;;
7831;SDS011;3961;42.058;25.586;2024-03-06T10:38:03;16.63;;;10.23;;
7831;SDS011;3961;42.058;25.586;2024-03-06T10:40:33;19.87;;;9.93;;
7831;SDS011;3961;42.058;25.586;2024-03-06T10:43:00;14.10;;;9.30;;
7831;SDS011;3961;42.058;25.586;2024-03-06T10:45:31;24.30;;;10.33;;
7831;SDS011;3961;42.058;25.586;2024-03-06T10:48:01;14.93;;;9.30;;
7831;SDS011;3961;42.058;25.586;2024-03-06T10:50:29;14.27;;;8.47;;
7831;SDS011;3961;42.058;25.586;2024-03-06T10:52:55;15.83;;;8.37;;
7831;SDS011;3961;42.058;25.586;2024-03-06T10:55:22;14.07;;;9.63;;
7831;SDS011;3961;42.058;25.586;2024-03-06T10:57:49;20.27;;;10.00;;
7831;SDS011;3961;42.058;25.586;2024-03-06T11:00:17;17.07;;;10.33;;
7831;SDS011;3961;42.058;25.586;2024-03-06T11:02:46;14.00;;;9.47;;
7831;SDS011;3961;42.058;25.586;2024-03-06T11:05:16;16.27;;;10.23;;
7831;SDS011;3961;42.058;25.586;2024-03-06T11:07:41;17.40;;;10.57;;
7831;SDS011;3961;42.058;25.586;2024-03-06T11:10:08;16.00;;;9.23;;
7831;SDS011;3961;42.058;25.586;2024-03-06T11:12:41;13.03;;;8.30;;
7831;SDS011;3961;42.058;25.586;2024-03-06T11:15:13;10.17;;;7.07;;
7831;SDS011;3961;42.058;25.586;2024-03-06T11:17:38;25.00;;;11.10;;
7831;SDS011;3961;42.058;25.586;2024-03-06T11:28:33;11.97;;;6.90;;
7831;SDS011;3961;42.058;25.586;2024-03-06T11:31:06;8.90;;;6.17;;
7831;SDS011;3961;42.058;25.586;2024-03-06T11:33:43;11.33;;;6.00;;
7831;SDS011;3961;42.058;25.586;2024-03-06T11:36:16;11.77;;;6.10;;
7831;SDS011;3961;42.058;25.586;2024-03-06T11:38:50;10.30;;;6.50;;
7831;SDS011;3961;42.058;25.586;2024-03-06T11:41:18;11.17;;;6.70;;
7831;SDS011;3961;42.058;25.586;2024-03-06T11:43:44;58.60;;;39.73;;
7831;SDS011;3961;42.058;25.586;2024-03-06T11:46:10;22.23;;;17.07;;
7831;SDS011;3961;42.058;25.586;2024-03-06T11:48:36;14.53;;;7.60;;
7831;SDS011;3961;42.058;25.586;2024-03-06T11:51:02;11.87;;;8.63;;
7831;SDS011;3961;42.058;25.586;2024-03-06T11:53:29;13.13;;;9.13;;
7831;SDS011;3961;42.058;25.586;2024-03-06T11:55:55;15.10;;;8.67;;
7831;SDS011;3961;42.058;25.586;2024-03-06T11:58:22;15.90;;;8.60;;
7831;SDS011;3961;42.058;25.586;2024-03-06T12:00:51;11.53;;;8.53;;
7831;SDS011;3961;42.058;25.586;2024-03-06T12:03:19;12.47;;;7.70;;
7831;SDS011;3961;42.058;25.586;2024-03-06T12:05:45;14.30;;;8.57;;
7831;SDS011;3961;42.058;25.586;2024-03-06T12:08:11;14.80;;;7.60;;
7831;SDS011;3961;42.058;25.586;2024-03-06T12:10:37;14.60;;;8.83;;
7831;SDS011;3961;42.058;25.586;2024-03-06T12:13:04;13.53;;;8.30;;
7831;SDS011;3961;42.058;25.586;2024-03-06T12:15:30;11.33;;;8.07;;
7831;SDS011;3961;42.058;25.586;2024-03-06T12:17:55;13.47;;;8.60;;
7831;SDS011;3961;42.058;25.586;2024-03-06T12:20:21;12.03;;;9.13;;
7831;SDS011;3961;42.058;25.586;2024-03-06T12:22:50;17.10;;;9.50;;
7831;SDS011;3961;42.058;25.586;2024-03-06T12:25:23;15.87;;;9.83;;
7831;SDS011;3961;42.058;25.586;2024-03-06T12:27:51;14.17;;;10.70;;
7831;SDS011;3961;42.058;25.586;2024-03-06T12:30:21;18.17;;;10.90;;
7831;SDS011;3961;42.058;25.586;2024-03-06T12:33:00;16.93;;;10.93;;
7831;SDS011;3961;42.058;25.586;2024-03-06T12:35:30;17.77;;;12.00;;
7831;SDS011;3961;42.058;25.586;2024-03-06T12:37:56;12.70;;;10.50;;
7831;SDS011;3961;42.058;25.586;2024-03-06T12:40:22;20.30;;;10.30;;
7831;SDS011;3961;42.058;25.586;2024-03-06T12:42:47;22.30;;;10.13;;
7831;SDS011;3961;42.058;25.586;2024-03-06T12:45:15;17.53;;;10.00;;
7831;SDS011;3961;42.058;25.586;2024-03-06T12:47:41;16.20;;;10.50;;
7831;SDS011;3961;42.058;25.586;2024-03-06T12:50:07;13.93;;;9.43;;
7831;SDS011;3961;42.058;25.586;2024-03-06T12:52:34;13.17;;;9.23;;
7831;SDS011;3961;42.058;25.586;2024-03-06T12:55:00;12.13;;;9.63;;
7831;SDS011;3961;42.058;25.586;2024-03-06T12:57:25;14.07;;;9.50;;
7831;SDS011;3961;42.058;25.586;2024-03-06T12:59:52;13.33;;;9.20;;
7831;SDS011;3961;42.058;25.586;2024-03-06T13:02:18;12.47;;;9.13;;
7831;SDS011;3961;42.058;25.586;2024-03-06T13:04:44;13.13;;;8.83;;
7831;SDS011;3961;42.058;25.586;2024-03-06T13:07:09;11.83;;;8.13;;
7831;SDS011;3961;42.058;25.586;2024-03-06T13:09:35;8.33;;;6.27;;
7831;SDS011;3961;42.058;25.586;2024-03-06T13:12:01;7.93;;;7.13;;
7831;SDS011;3961;42.058;25.586;2024-03-06T13:14:26;12.43;;;7.73;;
7831;SDS011;3961;42.058;25.586;2024-03-06T13:16:52;11.67;;;6.90;;
7831;SDS011;3961;42.058;25.586;2024-03-06T13:19:17;7.87;;;5.90;;
7831;SDS011;3961;42.058;25.586;2024-03-06T13:21:42;10.50;;;7.07;;
7831;SDS011;3961;42.058;25.586;2024-03-06T13:24:08;10.60;;;7.13;;
7831;SDS011;3961;42.058;25.586;2024-03-06T13:26:33;10.20;;;7.37;;
7831;SDS011;3961;42.058;25.586;2024-03-06T13:28:59;12.40;;;7.03;;
7831;SDS011;3961;42.058;25.586;2024-03-06T13:31:24;9.47;;;6.40;;
7831;SDS011;3961;42.058;25.586;2024-03-06T13:33:50;20.90;;;11.40;;
7831;SDS011;3961;42.058;25.586;2024-03-06T13:36:15;8.53;;;6.47;;
7831;SDS011;3961;42.058;25.586;2024-03-06T13:38:41;7.90;;;6.30;;
7831;SDS011;3961;42.058;25.586;2024-03-06T13:41:06;9.07;;;6.90;;
7831;SDS011;3961;42.058;25.586;2024-03-06T13:43:31;12.33;;;7.20;;
7831;SDS011;3961;42.058;25.586;2024-03-06T13:45:57;10.63;;;7.23;;
7831;SDS011;3961;42.058;25.586;2024-03-06T13:48:23;13.23;;;7.30;;
7831;SDS011;3961;42.058;25.586;2024-03-06T13:50:49;11.47;;;7.70;;
7831;SDS011;3961;42.058;25.586;2024-03-06T13:53:14;10.17;;;6.87;;
7831;SDS011;3961;42.058;25.586;2024-03-06T13:55:40;9.97;;;6.53;;
7831;SDS011;3961;42.058;25.586;2024-03-06T13:58:05;13.20;;;7.37;;
7831;SDS011;3961;42.058;25.586;2024-03-06T14:00:32;19.13;;;12.00;;
7831;SDS011;3961;42.058;25.586;2024-03-06T14:02:59;9.80;;;7.00;;
7831;SDS011;3961;42.058;25.586;2024-03-06T14:05:25;10.57;;;7.40;;
7831;SDS011;3961;42.058;25.586;2024-03-06T14:07:51;12.33;;;7.93;;
7831;SDS011;3961;42.058;25.586;2024-03-06T14:10:17;9.90;;;6.93;;
7831;SDS011;3961;42.058;25.586;2024-03-06T14:12:47;11.63;;;7.77;;
7831;SDS011;3961;42.058;25.586;2024-03-06T14:15:12;24.70;;;14.73;;
7831;SDS011;3961;42.058;25.586;2024-03-06T14:17:38;12.73;;;7.43;;
7831;SDS011;3961;42.058;25.586;2024-03-06T14:20:04;12.40;;;7.50;;
7831;SDS011;3961;42.058;25.586;2024-03-06T14:22:30;16.30;;;8.07;;
7831;SDS011;3961;42.058;25.586;2024-03-06T14:24:55;12.00;;;7.37;;
7831;SDS011;3961;42.058;25.586;2024-03-06T14:27:21;12.87;;;6.50;;
7831;SDS011;3961;42.058;25.586;2024-03-06T14:29:47;10.90;;;6.90;;
7831;SDS011;3961;42.058;25.586;2024-03-06T14:32:12;13.23;;;7.13;;
7831;SDS011;3961;42.058;25.586;2024-03-06T14:34:39;14.40;;;6.57;;
7831;SDS011;3961;42.058;25.586;2024-03-06T14:37:04;11.70;;;6.40;;
7831;SDS011;3961;42.058;25.586;2024-03-06T14:39:30;11.37;;;6.80;;
7831;SDS011;3961;42.058;25.586;2024-03-06T14:41:55;12.77;;;6.33;;
7831;SDS011;3961;42.058;25.586;2024-03-06T14:44:21;11.77;;;6.20;;
7831;SDS011;3961;42.058;25.586;2024-03-06T14:46:46;13.17;;;5.97;;